Time;durP1;ratioP1;P1;durP2;ratioP2;P2;SDS_P1;SDS_P2;PMS_P1;PMS_P2;Temp;Humidity;BMP_temperature;BMP_pressure;BME280_temperature;BME280_humidity;BME280_pressure;Samples;Min_cycle;Max_cycle;Signal;HPM_P1;HPM_P2
2022/10/31 00:01:32;;;;;;;25.95;12.33;;;;;;;9.73;82.26;99722.72;1689644;85;21010;-80
2022/10/31 00:03:59;;;;;;;22.45;12.50;;;;;;;9.73;82.46;99727.46;1712467;83;21051;-78
2022/10/31 00:06:27;;;;;;;25.05;12.07;;;;;;;9.71;81.99;99716.23;1715430;83;21582;-79
2022/10/31 00:08:59;;;;;;;23.87;13.50;;;;;;;9.60;81.69;99713.34;1698788;82;21055;-79
2022/10/31 00:11:27;;;;;;;25.70;13.22;;;;;;;9.55;82.68;99714.25;1711943;82;21619;-78
2022/10/31 00:13:55;;;;;;;26.12;13.30;;;;;;;9.55;83.25;99712.10;1685863;84;21039;-79
2022/10/31 00:16:25;;;;;;;25.43;13.25;;;;;;;9.57;83.09;99707.75;1679299;83;21067;-80
2022/10/31 00:18:57;;;;;;;26.68;12.82;;;;;;;9.57;83.47;99712.95;1713444;83;21078;-79
2022/10/31 00:21:25;;;;;;;27.95;12.73;;;;;;;9.58;83.68;99710.75;1693365;84;21011;-79
2022/10/31 00:23:53;;;;;;;25.62;13.60;;;;;;;9.61;84.10;99709.44;1693980;82;21039;-79
2022/10/31 00:26:20;;;;;;;32.83;14.80;;;;;;;9.65;85.23;99708.94;1687670;83;21082;-79
2022/10/31 00:28:48;;;;;;;25.70;13.90;;;;;;;9.63;84.79;99712.88;1705314;82;21062;-79
2022/10/31 00:31:16;;;;;;;25.75;13.25;;;;;;;9.58;84.01;99709.45;1652100;85;21575;-79
2022/10/31 00:33:45;;;;;;;28.20;13.28;;;;;;;9.50;83.69;99711.28;1656584;86;21071;-79
2022/10/31 00:36:17;;;;;;;25.20;13.65;;;;;;;9.44;83.69;99703.56;1657463;86;21543;-79
2022/10/31 00:38:45;;;;;;;27.27;13.80;;;;;;;9.43;83.95;99706.60;1664381;85;21143;-79
2022/10/31 00:41:16;;;;;;;31.00;14.03;;;;;;;9.45;83.71;99708.74;1625662;88;21000;-79
2022/10/31 00:43:45;;;;;;;27.82;14.38;;;;;;;9.43;83.28;99700.53;1609605;86;21151;-79
2022/10/31 00:46:13;;;;;;;30.30;14.05;;;;;;;9.44;83.73;99700.97;1645127;86;21007;-79
2022/10/31 00:48:42;;;;;;;33.67;15.90;;;;;;;9.41;83.43;99701.88;1649093;86;21007;-79
2022/10/31 00:51:10;;;;;;;27.05;14.05;;;;;;;9.41;84.65;99697.09;1645015;86;21032;-79
2022/10/31 00:53:38;;;;;;;28.47;14.03;;;;;;;9.41;84.68;99702.28;1646275;86;21083;-79
2022/10/31 00:56:06;;;;;;;27.98;13.22;;;;;;;9.44;85.29;99707.45;1651735;86;21503;-79
2022/10/31 00:58:34;;;;;;;25.37;13.48;;;;;;;9.48;85.10;99706.09;1651866;86;21030;-78
2022/10/31 01:01:03;;;;;;;27.80;13.55;;;;;;;9.52;84.86;99694.80;1645639;85;21134;-79
2022/10/31 01:03:33;;;;;;;27.62;13.35;;;;;;;9.57;84.48;99699.97;1648299;86;21090;-80
2022/10/31 01:06:06;;;;;;;26.17;13.43;;;;;;;9.57;84.02;99692.17;1659176;86;21071;-79
2022/10/31 01:08:36;;;;;;;24.50;13.00;;;;;;;9.57;83.59;99697.38;1659233;86;21016;-78
2022/10/31 01:11:18;;;;;;;23.90;13.25;;;;;;;9.58;83.29;99696.48;1658130;86;21003;-78
2022/10/31 01:13:47;;;;;;;21.15;11.88;;;;;;;9.55;82.46;99699.13;1656866;86;22005;-78
2022/10/31 01:16:19;;;;;;;23.40;12.23;;;;;;;9.47;81.74;99694.42;1658296;86;21051;-81
2022/10/31 01:18:47;;;;;;;25.72;12.10;;;;;;;9.30;81.35;99694.63;1654546;85;21035;-79
2022/10/31 01:21:27;;;;;;;23.05;11.78;;;;;;;9.19;81.60;99696.05;1654777;86;21446;-78
2022/10/31 01:23:57;;;;;;;25.17;11.78;;;;;;;9.06;81.47;99703.06;1621100;86;21023;-78
2022/10/31 01:26:29;;;;;;;24.47;12.95;;;;;;;8.94;82.78;99701.44;1663054;85;21067;-78
2022/10/31 01:29:01;;;;;;;29.75;13.83;;;;;;;8.95;82.81;99703.17;1661792;86;21056;-79
2022/10/31 01:31:33;;;;;;;30.37;13.13;;;;;;;8.85;82.80;99703.25;1646517;85;21055;-81
2022/10/31 01:34:02;;;;;;;27.55;13.03;;;;;;;8.84;82.51;99702.84;1704324;83;21574;-78
2022/10/31 01:36:33;;;;;;;30.95;14.05;;;;;;;8.71;82.08;99707.24;1696417;83;21571;-79
2022/10/31 01:39:08;;;;;;;30.20;13.48;;;;;;;8.60;82.66;99702.59;1704843;82;21046;-78
2022/10/31 01:41:40;;;;;;;30.72;14.00;;;;;;;8.59;84.00;99703.45;1716615;83;20987;-78
2022/10/31 01:44:21;;;;;;;26.68;13.22;;;;;;;8.54;83.77;99700.46;1711651;83;21054;-79
2022/10/31 01:47:03;;;;;;;28.92;13.72;;;;;;;8.50;84.15;99707.84;1700915;83;21106;-80
2022/10/31 01:49:39;;;;;;;27.60;13.53;;;;;;;8.48;83.79;99707.43;1703195;82;21055;-79
2022/10/31 01:52:38;;;;;;;30.40;13.80;;;;;;;8.44;84.20;99699.25;1714190;83;21050;-79
2022/10/31 01:55:17;;;;;;;28.12;14.45;;;;;;;8.45;84.86;99695.77;1699561;83;21011;-79
2022/10/31 01:57:49;;;;;;;32.42;14.55;;;;;;;8.49;85.12;99698.77;1707984;82;21063;-79
2022/10/31 02:00:20;;;;;;;27.48;14.65;;;;;;;8.54;85.25;99699.16;1707054;82;21008;-79
2022/10/31 02:02:49;;;;;;;30.97;14.30;;;;;;;8.56;86.01;99698.72;1687980;85;21031;-79
2022/10/31 02:05:21;;;;;;;28.87;14.63;;;;;;;8.59;85.88;99697.83;1710912;82;21031;-79
2022/10/31 02:08:31;;;;;;;29.30;14.10;;;;;;;8.65;86.29;99699.07;1694242;84;21051;-79
2022/10/31 02:11:01;;;;;;;27.32;14.00;;;;;;;8.72;86.86;99698.61;1698147;83;21110;-78
2022/10/31 02:13:29;;;;;;;28.00;13.53;;;;;;;8.72;85.61;99707.23;1707863;83;21090;-79
2022/10/31 02:15:59;;;;;;;28.12;13.40;;;;;;;8.75;85.85;99709.83;1707201;83;21050;-79
2022/10/31 02:18:30;;;;;;;32.48;15.48;;;;;;;8.83;86.49;99702.40;1709568;83;21051;-79
2022/10/31 02:21:27;;;;;;;31.42;14.40;;;;;;;8.90;86.04;99704.94;1695582;83;21571;-81
2022/10/31 02:24:36;;;;;;;38.25;15.25;;;;;;;8.97;86.66;99701.84;1695101;82;21043;-80
2022/10/31 02:27:18;;;;;;;39.30;15.20;;;;;;;8.95;85.43;99694.51;1715740;83;21082;-78
2022/10/31 02:30:09;;;;;;;44.15;16.42;;;;;;;9.00;88.09;99709.61;1692924;83;21055;-78
2022/10/31 02:32:48;;;;;;;39.50;16.00;;;;;;;8.99;87.67;99710.91;1707356;83;21057;-79
2022/10/31 02:35:34;;;;;;;38.35;15.05;;;;;;;8.98;87.48;99716.98;1683123;84;21015;-79
2022/10/31 02:38:31;;;;;;;38.45;15.93;;;;;;;9.01;87.49;99719.53;1682092;85;21051;-80
2022/10/31 02:41:41;;;;;;;37.08;15.15;;;;;;;9.02;87.40;99709.16;1668299;85;21579;-78
2022/10/31 02:44:31;;;;;;;37.35;15.40;;;;;;;9.14;87.55;99720.70;1663329;85;21050;-79
2022/10/31 02:47:06;;;;;;;39.58;16.35;;;;;;;9.19;87.38;99729.77;1680374;85;21531;-79
2022/10/31 02:50:13;;;;;;;38.55;16.30;;;;;;;9.19;87.21;99728.89;1669724;85;21039;-80
2022/10/31 02:52:41;;;;;;;44.40;15.75;;;;;;;9.20;87.81;99727.58;1681358;85;21026;-79
2022/10/31 02:55:26;;;;;;;41.55;16.32;;;;;;;9.27;86.12;99723.18;1671802;85;21023;-79
2022/10/31 02:58:12;;;;;;;36.93;15.25;;;;;;;9.23;86.45;99729.28;1683470;85;21016;-80
2022/10/31 03:01:14;;;;;;;38.50;15.95;;;;;;;9.27;86.73;99725.78;1686711;85;21544;-79
2022/10/31 03:04:06;;;;;;;47.95;16.80;;;;;;;9.27;86.83;99733.56;1674429;84;21012;-80
2022/10/31 03:06:42;;;;;;;40.20;15.25;;;;;;;9.31;87.37;99733.95;1685800;84;21302;-78
2022/10/31 03:09:30;;;;;;;37.23;15.23;;;;;;;9.40;87.04;99729.13;1667934;85;21092;-79
2022/10/31 03:12:17;;;;;;;39.95;15.53;;;;;;;9.42;87.94;99724.33;1664737;84;21012;-79
2022/10/31 03:15:05;;;;;;;40.12;15.80;;;;;;;9.48;86.82;99733.80;1691041;83;21499;-79
2022/10/31 03:17:56;;;;;;;36.28;15.13;;;;;;;9.48;87.47;99733.35;1691806;83;21043;-78
2022/10/31 03:20:35;;;;;;;39.80;14.85;;;;;;;9.53;88.04;99730.73;1690163;83;21086;-79
2022/10/31 03:23:08;;;;;;;40.98;15.72;;;;;;;9.62;88.76;99725.41;1709437;82;21574;-79
2022/10/31 03:25:38;;;;;;;43.50;16.25;;;;;;;9.70;88.75;99724.03;1705002;82;21049;-79
2022/10/31 03:28:07;;;;;;;45.65;16.70;;;;;;;9.76;88.24;99733.05;1669948;85;21622;-80
2022/10/31 03:30:39;;;;;;;45.90;16.80;;;;;;;9.79;88.21;99738.22;1671290;84;21048;-79
2022/10/31 03:33:11;;;;;;;44.98;16.07;;;;;;;9.85;88.18;99739.89;1678561;85;21000;-81
2022/10/31 03:35:43;;;;;;;52.55;17.80;;;;;;;9.87;87.96;99738.98;1663905;85;21311;-82
2022/10/31 03:38:12;;;;;;;44.63;16.27;;;;;;;9.88;88.07;99738.09;1681153;85;21531;-79
2022/10/31 03:40:43;;;;;;;40.28;16.42;;;;;;;9.90;87.73;99738.08;1669576;84;21578;-79
2022/10/31 03:43:20;;;;;;;41.45;15.13;;;;;;;9.92;87.49;99741.52;1680902;85;21104;-79
2022/10/31 03:45:49;;;;;;;50.43;16.75;;;;;;;9.93;87.49;99740.66;1680102;85;21039;-79
2022/10/31 03:48:19;;;;;;;47.27;16.85;;;;;;;9.94;87.77;99743.21;1680228;84;21091;-78
2022/10/31 03:51:05;;;;;;;41.42;15.30;;;;;;;9.99;87.73;99741.87;1679113;85;21007;-78
2022/10/31 03:53:38;;;;;;;45.23;15.38;;;;;;;10.03;87.86;99739.66;1666627;85;21036;-80
2022/10/31 03:56:30;;;;;;;48.40;15.68;;;;;;;10.03;86.96;99740.96;1675561;84;21024;-79
2022/10/31 03:59:08;;;;;;;45.73;15.65;;;;;;;9.98;86.67;99734.09;1680563;85;21071;-80
2022/10/31 04:01:41;;;;;;;46.55;16.60;;;;;;;9.92;86.68;99735.02;1679456;83;21575;-80
2022/10/31 04:04:10;;;;;;;52.33;17.07;;;;;;;9.96;88.23;99730.21;1671751;84;21031;-78
2022/10/31 04:06:40;;;;;;;47.75;16.15;;;;;;;10.02;88.37;99731.88;1671168;84;21087;-79
2022/10/31 04:09:11;;;;;;;48.28;16.25;;;;;;;10.03;88.32;99729.72;1661640;85;21582;-78
2022/10/31 04:11:49;;;;;;;50.17;17.37;;;;;;;10.00;87.82;99728.44;1671777;84;21379;-79
2022/10/31 04:14:39;;;;;;;53.13;17.92;;;;;;;9.99;88.00;99730.19;1680339;85;21071;-79
2022/10/31 04:17:12;;;;;;;53.90;19.23;;;;;;;9.98;88.24;99735.39;1666719;86;21028;-79
2022/10/31 04:19:41;;;;;;;54.18;17.42;;;;;;;9.97;88.68;99735.84;1678701;85;21040;-79
2022/10/31 04:22:09;;;;;;;56.55;18.00;;;;;;;10.01;88.73;99736.64;1660014;85;21025;-79
2022/10/31 04:24:40;;;;;;;64.67;17.70;;;;;;;10.05;88.74;99737.05;1665068;85;21083;-80
2022/10/31 04:27:11;;;;;;;55.95;18.10;;;;;;;10.08;88.82;99739.59;1666673;85;21112;-78
2022/10/31 04:29:38;;;;;;;62.88;17.62;;;;;;;10.10;89.16;99739.98;1664456;85;21059;-79
2022/10/31 04:32:06;;;;;;;52.15;18.85;;;;;;;10.14;89.20;99740.81;1679732;85;21095;-78
2022/10/31 04:34:34;;;;;;;44.23;16.87;;;;;;;10.16;88.84;99743.80;1709704;84;21004;-78
2022/10/31 04:37:02;;;;;;;52.62;17.55;;;;;;;10.18;88.94;99744.23;1701943;84;21055;-78
2022/10/31 04:39:30;;;;;;;56.58;18.55;;;;;;;10.19;89.33;99744.22;1708967;84;21645;-79
2022/10/31 04:42:03;;;;;;;53.42;17.87;;;;;;;10.20;89.29;99743.77;1695640;84;21024;-79
2022/10/31 04:44:30;;;;;;;40.80;15.45;;;;;;;10.24;90.03;99753.24;1694530;84;21043;-79
2022/10/31 04:46:58;;;;;;;47.25;16.02;;;;;;;10.23;89.44;99759.34;1696647;84;21558;-78
2022/10/31 04:49:26;;;;;;;42.48;17.15;;;;;;;10.23;89.62;99747.20;1700735;82;21035;-79
2022/10/31 04:51:54;;;;;;;49.03;18.45;;;;;;;10.18;88.36;99758.52;1723777;82;21022;-79
2022/10/31 04:54:21;;;;;;;57.38;17.98;;;;;;;10.17;88.42;99758.97;1703573;84;21055;-79
2022/10/31 04:57:07;;;;;;;43.87;16.37;;;;;;;10.14;88.92;99763.75;1696689;82;21032;-79
2022/10/31 04:59:36;;;;;;;56.75;17.98;;;;;;;10.14;89.80;99761.59;1686630;82;21588;-80
2022/10/31 05:02:04;;;;;;;39.08;16.25;;;;;;;10.10;89.24;99759.47;1681188;84;21539;-78
2022/10/31 05:04:42;;;;;;;51.58;18.17;;;;;;;10.12;89.91;99766.80;1704541;84;21048;-79
2022/10/31 05:07:10;;;;;;;49.55;18.73;;;;;;;10.13;90.38;99762.04;1695104;84;21043;-78
2022/10/31 05:09:37;;;;;;;53.10;18.17;;;;;;;10.15;89.25;99762.03;1705440;82;21083;-79
2022/10/31 05:12:05;;;;;;;53.15;17.82;;;;;;;10.11;88.00;99778.54;1710094;82;21042;-78
2022/10/31 05:14:47;;;;;;;54.73;17.50;;;;;;;10.05;88.74;99770.82;1666532;84;21055;-78
2022/10/31 05:17:28;;;;;;;51.58;18.45;;;;;;;10.04;88.90;99777.73;1672183;84;21019;-78
2022/10/31 05:20:05;;;;;;;45.45;16.20;;;;;;;9.98;88.59;99776.95;1709179;84;21059;-79
2022/10/31 05:22:37;;;;;;;58.90;19.05;;;;;;;9.92;90.06;99775.28;1697502;82;21523;-79
2022/10/31 05:25:06;;;;;;;46.25;17.05;;;;;;;9.92;90.33;99771.39;1693993;84;21538;-79
2022/10/31 05:27:34;;;;;;;49.88;18.40;;;;;;;9.93;89.35;99785.66;1702802;84;21019;-78
2022/10/31 05:30:03;;;;;;;51.70;18.30;;;;;;;9.91;89.88;99790.47;1692962;82;21074;-78
2022/10/31 05:32:40;;;;;;;52.00;18.87;;;;;;;9.91;90.38;99781.38;1700096;82;21157;-79
2022/10/31 05:35:30;;;;;;;52.23;18.92;;;;;;;9.90;90.91;99785.69;1707158;82;21098;-78
2022/10/31 05:38:06;;;;;;;58.70;18.60;;;;;;;9.96;91.43;99788.66;1682799;83;21122;-79
2022/10/31 05:40:34;;;;;;;63.98;18.77;;;;;;;10.06;91.91;99794.16;1710947;82;21019;-78
2022/10/31 05:43:03;;;;;;;60.98;18.35;;;;;;;10.12;91.34;99799.28;1698155;83;20991;-79
2022/10/31 05:45:31;;;;;;;50.08;19.25;;;;;;;10.13;90.88;99801.02;1709889;83;21626;-79
2022/10/31 05:48:02;;;;;;;59.58;20.40;;;;;;;10.16;90.28;99799.66;1714812;83;20999;-78
2022/10/31 05:50:49;;;;;;;65.00;22.55;;;;;;;10.20;90.12;99800.94;1700661;83;21046;-82
2022/10/31 05:53:17;;;;;;;65.15;20.17;;;;;;;10.21;91.67;99804.83;1705038;83;22181;-79
2022/10/31 05:55:46;;;;;;;47.45;19.07;;;;;;;10.23;89.70;99806.97;1702927;82;21063;-79
2022/10/31 05:58:19;;;;;;;62.88;23.22;;;;;;;10.24;90.47;99806.52;1702945;82;21050;-78
2022/10/31 06:00:48;;;;;;;63.50;21.60;;;;;;;10.29;91.25;99807.33;1712442;83;21028;-79
2022/10/31 06:03:16;;;;;;;58.60;20.02;;;;;;;10.35;91.70;99798.19;1707167;82;21539;-78
2022/10/31 06:05:48;;;;;;;59.38;19.23;;;;;;;10.39;90.75;99805.06;1695068;83;21091;-79
2022/10/31 06:08:18;;;;;;;55.33;19.77;;;;;;;10.39;90.80;99802.91;1704595;83;21071;-79
2022/10/31 06:10:46;;;;;;;47.70;18.48;;;;;;;10.37;90.60;99796.43;1711859;83;21047;-79
2022/10/31 06:13:15;;;;;;;46.73;18.27;;;;;;;10.40;90.68;99798.12;1700261;82;22371;-78
2022/10/31 06:15:47;;;;;;;60.60;20.10;;;;;;;10.42;90.60;99798.51;1706673;83;21571;-80
2022/10/31 06:18:15;;;;;;;55.38;18.87;;;;;;;10.40;90.24;99802.87;1706348;82;21015;-80
2022/10/31 06:20:47;;;;;;;55.50;18.12;;;;;;;10.37;90.16;99806.83;1699121;83;21515;-78
2022/10/31 06:23:15;;;;;;;64.60;19.62;;;;;;;10.34;90.53;99810.75;1702387;82;21055;-79
2022/10/31 06:25:50;;;;;;;55.50;19.37;;;;;;;10.35;90.62;99819.83;1706800;82;21074;-79
2022/10/31 06:28:18;;;;;;;59.67;19.85;;;;;;;10.38;91.30;99805.93;1677753;85;22179;-78
2022/10/31 06:30:53;;;;;;;52.80;19.12;;;;;;;10.42;90.67;99808.05;1683985;85;21032;-80
2022/10/31 06:33:21;;;;;;;45.78;18.87;;;;;;;10.42;89.90;99806.75;1709992;82;21138;-79
2022/10/31 06:35:59;;;;;;;53.58;18.23;;;;;;;10.37;90.94;99810.72;1695484;82;21016;-79
2022/10/31 06:38:28;;;;;;;43.28;17.75;;;;;;;10.39;90.45;99818.52;1702601;82;21016;-80
2022/10/31 06:40:58;;;;;;;44.40;17.57;;;;;;;10.40;90.28;99814.56;1714698;82;21027;-80
2022/10/31 06:43:30;;;;;;;43.35;17.32;;;;;;;10.35;90.09;99818.53;1702515;82;22394;-79
2022/10/31 06:46:08;;;;;;;48.38;18.77;;;;;;;10.36;90.11;99823.28;1627335;87;21059;-78
2022/10/31 06:48:40;;;;;;;56.80;19.55;;;;;;;10.31;90.55;99823.35;1668971;85;21134;-79
2022/10/31 06:51:18;;;;;;;50.33;20.00;;;;;;;10.30;90.58;99824.22;1721528;82;21115;-80
2022/10/31 06:53:46;;;;;;;50.10;19.45;;;;;;;10.35;90.91;99825.48;1704411;82;21047;-80
2022/10/31 06:56:14;;;;;;;52.98;21.80;;;;;;;10.40;90.68;99830.61;1709054;82;21066;-81
2022/10/31 06:58:44;;;;;;;50.78;19.95;;;;;;;10.37;91.21;99832.82;1706865;82;21059;-80
2022/10/31 07:01:12;;;;;;;54.05;21.85;;;;;;;10.42;90.74;99832.30;1707868;82;21075;-79
2022/10/31 07:03:40;;;;;;;52.20;19.92;;;;;;;10.46;90.51;99841.78;1701949;82;20995;-86
2022/10/31 07:06:08;;;;;;;49.50;20.52;;;;;;;10.47;90.75;99835.72;1674589;85;21058;-79
2022/10/31 07:08:36;;;;;;;53.40;22.32;;;;;;;10.50;90.35;99832.20;1712137;82;20987;-79
2022/10/31 07:11:04;;;;;;;51.88;21.50;;;;;;;10.49;90.85;99837.86;1709254;82;21047;-79
2022/10/31 07:13:32;;;;;;;52.33;21.23;;;;;;;10.53;91.03;99836.08;1701365;82;21055;-79
2022/10/31 07:16:06;;;;;;;52.05;22.07;;;;;;;10.51;90.54;99823.55;1708591;82;21106;-79
2022/10/31 07:18:35;;;;;;;45.78;20.32;;;;;;;10.59;91.87;99836.45;1717809;82;20987;-79
2022/10/31 07:21:04;;;;;;;50.90;22.40;;;;;;;10.66;90.58;99828.52;1710041;82;21159;-79
2022/10/31 07:23:32;;;;;;;60.28;21.70;;;;;;;10.66;90.40;99826.36;1706452;82;21294;-80
2022/10/31 07:26:18;;;;;;;55.25;21.50;;;;;;;10.73;90.80;99834.52;1708393;82;21134;-80
2022/10/31 07:28:48;;;;;;;46.83;20.50;;;;;;;10.83;91.27;99831.34;1713305;82;21027;-80
2022/10/31 07:31:16;;;;;;;52.78;21.07;;;;;;;10.84;91.08;99830.03;1709110;82;21063;-79
2022/10/31 07:33:43;;;;;;;56.37;23.38;;;;;;;10.90;90.68;99835.55;1680593;83;21013;-81
2022/10/31 07:36:29;;;;;;;75.80;27.20;;;;;;;10.97;91.59;99833.75;1678770;83;22219;-81
2022/10/31 07:38:59;;;;;;;51.95;21.80;;;;;;;11.06;91.59;99829.27;1689521;83;21008;-79
2022/10/31 07:41:27;;;;;;;60.80;20.55;;;;;;;11.18;90.78;99837.74;1670621;84;21094;-79
2022/10/31 07:43:55;;;;;;;52.90;21.85;;;;;;;11.26;91.14;99837.17;1663844;85;21201;-81
2022/10/31 07:46:42;;;;;;;47.30;20.20;;;;;;;11.37;90.85;99838.32;1661125;85;21146;-84
2022/10/31 07:49:28;;;;;;;58.52;21.17;;;;;;;11.47;90.66;99828.17;1669820;84;21090;-84
2022/10/31 07:52:10;;;;;;;56.35;21.45;;;;;;;11.59;90.68;99829.25;1668288;85;21034;-81
2022/10/31 07:54:58;;;;;;;55.03;22.35;;;;;;;11.72;90.10;99828.61;1663705;85;21598;-80
2022/10/31 07:57:26;;;;;;;45.60;19.92;;;;;;;11.81;89.91;99830.17;1675040;85;21031;-81
2022/10/31 07:59:53;;;;;;;49.77;20.32;;;;;;;11.91;89.56;99835.20;1673314;84;21066;-83
2022/10/31 08:02:21;;;;;;;47.20;19.85;;;;;;;12.00;89.34;99839.41;1673817;85;20976;-79
2022/10/31 08:04:49;;;;;;;60.58;20.12;;;;;;;12.08;88.83;99835.35;1663649;85;21685;-82
2022/10/31 08:07:37;;;;;;;56.08;20.10;;;;;;;12.11;88.59;99834.82;1664908;85;21105;-80
2022/10/31 08:10:06;;;;;;;48.75;19.65;;;;;;;12.12;88.13;99827.88;1648836;85;21093;-81
2022/10/31 08:12:35;;;;;;;52.45;20.65;;;;;;;12.14;87.74;99835.23;1649622;85;21014;-80
2022/10/31 08:15:05;;;;;;;42.03;18.27;;;;;;;12.15;87.89;99838.23;1656504;85;21050;-82
2022/10/31 08:17:38;;;;;;;41.10;19.02;;;;;;;12.27;88.22;99839.28;1666095;85;21488;-79
2022/10/31 08:20:07;;;;;;;42.23;18.55;;;;;;;12.26;87.69;99836.73;1667779;85;21080;-80
2022/10/31 08:22:37;;;;;;;41.65;16.40;;;;;;;12.34;87.83;99833.52;1673035;85;21066;-79
2022/10/31 08:25:05;;;;;;;42.20;16.85;;;;;;;12.40;87.93;99837.77;1661927;85;21070;-79
2022/10/31 08:27:33;;;;;;;41.83;17.95;;;;;;;12.45;87.56;99837.20;1662845;85;21090;-79
2022/10/31 08:30:01;;;;;;;31.85;14.53;;;;;;;12.47;87.41;99838.91;1666776;85;21112;-79
2022/10/31 08:32:29;;;;;;;41.00;16.82;;;;;;;12.54;87.34;99840.93;1671308;85;21023;-81
2022/10/31 08:35:08;;;;;;;37.35;16.67;;;;;;;12.57;87.25;99833.48;1703367;82;21011;-80
2022/10/31 08:37:58;;;;;;;43.30;16.80;;;;;;;12.68;87.08;99835.42;1710614;82;21028;-80
2022/10/31 08:40:31;;;;;;;43.25;15.15;;;;;;;12.82;86.81;99841.19;1707435;82;21011;-79
2022/10/31 08:43:11;;;;;;;39.55;14.98;;;;;;;12.96;86.62;99838.72;1667603;85;21079;-79
2022/10/31 08:45:39;;;;;;;32.83;14.45;;;;;;;13.09;86.52;99842.31;1710424;82;21094;-79
2022/10/31 08:48:15;;;;;;;31.40;14.00;;;;;;;13.20;85.18;99843.35;1708504;82;21773;-79
2022/10/31 08:50:45;;;;;;;27.85;12.82;;;;;;;13.35;85.57;99841.29;1707533;82;21050;-80
2022/10/31 08:53:18;;;;;;;33.78;12.93;;;;;;;13.41;84.53;99840.71;1705463;82;21102;-80
2022/10/31 08:55:47;;;;;;;31.52;13.80;;;;;;;13.48;84.29;99846.63;1701861;82;21586;-80
2022/10/31 08:58:26;;;;;;;29.92;12.58;;;;;;;13.56;83.25;99838.61;1709814;82;21041;-80
2022/10/31 09:00:56;;;;;;;28.73;12.30;;;;;;;13.69;83.72;99848.70;1702150;82;21028;-79
2022/10/31 09:03:27;;;;;;;31.60;12.20;;;;;;;13.78;83.89;99845.44;1670901;85;21023;-79
2022/10/31 09:05:59;;;;;;;22.70;11.25;;;;;;;13.79;83.23;99841.94;1670118;85;21023;-78
2022/10/31 09:08:31;;;;;;;30.40;12.07;;;;;;;13.89;82.78;99848.18;1670401;85;21511;-80
2022/10/31 09:10:59;;;;;;;23.87;10.43;;;;;;;14.01;82.74;99839.16;1703835;82;21011;-78
2022/10/31 09:13:45;;;;;;;21.30;9.93;;;;;;;14.09;82.32;99835.88;1708522;82;21106;-80
2022/10/31 09:16:15;;;;;;;22.50;10.10;;;;;;;14.24;81.35;99835.88;1641505;85;21115;-79
2022/10/31 09:18:43;;;;;;;23.60;10.65;;;;;;;14.30;80.55;99842.70;1704619;82;21071;-79
2022/10/31 09:21:19;;;;;;;36.95;16.17;;;;;;;14.32;81.71;99835.66;1712997;82;21447;-80
2022/10/31 09:23:47;;;;;;;39.53;17.52;;;;;;;14.35;80.48;99842.13;1680489;82;20999;-80
2022/10/31 09:26:16;;;;;;;22.17;9.73;;;;;;;14.42;80.22;99844.95;1703193;82;21113;-79
2022/10/31 09:28:49;;;;;;;26.00;11.22;;;;;;;14.45;80.49;99845.34;1707076;82;21158;-78
2022/10/31 09:31:18;;;;;;;31.48;12.25;;;;;;;14.46;80.46;99840.50;1694353;82;21582;-80
2022/10/31 09:33:56;;;;;;;30.88;13.95;;;;;;;14.42;79.88;99841.03;1715954;82;21067;-80
2022/10/31 09:36:26;;;;;;;32.13;13.83;;;;;;;14.37;79.49;99836.41;1706168;82;21043;-78
2022/10/31 09:38:55;;;;;;;30.37;13.05;;;;;;;14.28;79.41;99837.96;1719945;82;21027;-79
2022/10/31 09:42:00;;;;;;;35.58;14.50;;;;;;;14.22;79.86;99841.60;1720217;82;20999;-80
2022/10/31 09:44:58;;;;;;;28.38;12.73;;;;;;;14.12;79.87;99834.92;1712006;82;21516;-79
2022/10/31 09:47:44;;;;;;;25.70;12.43;;;;;;;14.19;80.12;99839.55;1673375;83;21006;-81
2022/10/31 09:50:42;;;;;;;34.00;13.60;;;;;;;14.19;79.81;99835.17;1376156;83;10000020;-79
2022/10/31 09:53:17;;;;;;;27.75;12.55;;;;;;;14.15;78.98;99832.70;1666024;84;21081;-81
2022/10/31 09:55:47;;;;;;;28.00;13.50;;;;;;;14.15;79.08;99828.77;1661844;84;21079;-78
2022/10/31 09:58:20;;;;;;;24.98;13.03;;;;;;;14.10;79.36;99820.58;1705758;82;21050;-80
2022/10/31 10:00:48;;;;;;;28.95;13.48;;;;;;;14.10;78.67;99826.27;1708102;82;22217;-80
2022/10/31 10:03:40;;;;;;;31.82;12.60;;;;;;;14.12;78.99;99816.62;1707577;82;21625;-81
2022/10/31 10:06:27;;;;;;;21.42;11.80;;;;;;;14.15;79.12;99817.00;1714652;82;21058;-81
2022/10/31 10:08:57;;;;;;;22.25;10.80;;;;;;;14.20;79.07;99816.41;1708572;82;21043;-81
2022/10/31 10:11:49;;;;;;;;;;;;;;;14.20;78.41;99820.33;1693024;82;21256;-80
2022/10/31 10:14:46;;;;;;;19.85;10.38;;;;;;;14.25;77.19;99818.45;1720457;82;20168;-81
2022/10/31 10:17:22;;;;;;;22.30;11.73;;;;;;;14.31;78.59;99821.73;1670888;82;21030;-79
2022/10/31 10:20:28;;;;;;;27.22;12.50;;;;;;;14.38;78.70;99821.09;1715161;82;21058;-80
2022/10/31 10:23:24;;;;;;;28.67;12.95;;;;;;;14.42;78.84;99817.95;1708504;82;21411;-80
2022/10/31 10:25:57;;;;;;;25.62;12.88;;;;;;;14.52;78.63;99816.34;1705541;82;21526;-81
2022/10/31 10:28:38;;;;;;;27.85;13.40;;;;;;;14.61;78.30;99813.07;1711399;82;21014;-79
2022/10/31 10:31:14;;;;;;;27.80;13.03;;;;;;;14.56;77.73;99810.58;1709343;82;21069;-78
2022/10/31 10:33:59;;;;;;;33.18;14.07;;;;;;;14.54;77.40;99809.73;1698674;82;22166;-81
2022/10/31 10:36:49;;;;;;;37.30;14.65;;;;;;;14.55;77.78;99804.07;1703566;83;21071;-79
2022/10/31 10:39:22;;;;;;;34.65;14.75;;;;;;;14.67;76.98;99808.96;1648019;86;21086;-79
2022/10/31 10:47:40;;;;;;;33.85;14.58;;;;;;;14.72;76.80;99800.50;1667035;84;21112;-81
2022/10/31 10:50:13;;;;;;;26.15;14.15;;;;;;;14.77;76.88;99805.61;1659227;84;21026;-82
2022/10/31 10:53:10;;;;;;;37.50;16.95;;;;;;;14.80;76.70;99797.22;1669496;86;21110;-80
2022/10/31 10:55:51;;;;;;;45.63;20.43;;;;;;;14.80;77.02;99793.72;1661793;86;21021;-78
2022/10/31 10:58:19;;;;;;;32.30;13.70;;;;;;;14.94;76.57;99804.64;1664451;86;21058;-80
2022/10/31 11:00:49;;;;;;;30.75;14.05;;;;;;;14.97;76.39;99802.36;1666974;84;21039;-85
2022/10/31 11:03:18;;;;;;;29.80;13.90;;;;;;;14.83;76.39;99794.48;1645570;86;21038;-83
2022/10/31 11:05:58;;;;;;;24.43;12.37;;;;;;;14.84;76.62;99795.33;1654945;85;21071;-80
2022/10/31 11:08:36;;;;;;;29.80;13.95;;;;;;;14.83;76.44;99787.94;1656748;84;21059;-82
2022/10/31 11:11:20;;;;;;;29.42;14.20;;;;;;;14.87;76.57;99796.56;1657815;86;21631;-78
2022/10/31 11:13:50;;;;;;;28.65;13.43;;;;;;;14.82;75.91;99801.95;1653008;86;21387;-79
2022/10/31 11:16:33;;;;;;;43.50;20.70;;;;;;;14.78;75.94;99797.72;1652184;86;21337;-81
2022/10/31 11:19:20;;;;;;;31.42;14.70;;;;;;;14.74;76.35;99796.53;1662821;84;21079;-79
2022/10/31 11:21:49;;;;;;;32.88;15.90;;;;;;;14.87;76.19;99788.70;1661525;84;21091;-79
2022/10/31 11:24:21;;;;;;;33.20;14.40;;;;;;;14.97;76.24;99778.34;1663855;85;21043;-80
2022/10/31 11:26:51;;;;;;;35.95;14.10;;;;;;;15.13;75.50;99782.63;1654949;85;21004;-79
2022/10/31 11:29:25;;;;;;;30.90;14.05;;;;;;;15.29;74.82;99786.45;1696044;83;21131;-81
2022/10/31 11:31:56;;;;;;;34.53;15.00;;;;;;;15.26;74.30;99774.78;1699376;83;21047;-82
2022/10/31 11:34:41;;;;;;;30.45;15.00;;;;;;;15.42;74.65;99771.61;1704027;83;21050;-84
2022/10/31 11:37:22;;;;;;;26.75;13.15;;;;;;;15.59;73.46;99769.27;1702039;83;21051;-80
2022/10/31 11:39:54;;;;;;;33.10;14.28;;;;;;;15.84;74.22;99768.45;1694303;83;21063;-79
2022/10/31 11:42:25;;;;;;;31.62;15.72;;;;;;;15.94;74.15;99773.77;1700047;83;21039;-80
2022/10/31 11:44:55;;;;;;;33.55;15.65;;;;;;;16.04;72.93;99776.91;1701379;83;20987;-78
2022/10/31 11:47:29;;;;;;;26.23;13.95;;;;;;;16.06;72.01;99773.31;1661732;84;21006;-81
2022/10/31 11:50:01;;;;;;;32.95;14.47;;;;;;;15.83;71.10;99770.20;1661283;85;21013;-81
2022/10/31 11:52:31;;;;;;;33.58;14.55;;;;;;;15.87;72.01;99772.27;1654396;84;21111;-80
2022/10/31 11:55:13;;;;;;;30.55;13.88;;;;;;;15.87;71.72;99768.33;1657371;85;21067;-81
2022/10/31 11:57:47;;;;;;;30.45;14.10;;;;;;;15.98;72.53;99774.05;1701451;83;21015;-79
2022/10/31 12:00:36;;;;;;;25.97;12.78;;;;;;;15.91;71.34;99770.77;1663015;86;21086;-83